Shady Grove, Texas
Current Conditions -  °F | °C
As of 6:53 PM on Saturday 25 Oct 2014 (Local Time) from KLFK Reporting Station
Clear Clear  
Wind Chill: 75°   Ceiling: Unl
Heat Index: 75°   Visibility: 10mi
Dew Point: 65°   Wind: 0mph
Humidity: 71%   Direction: NA
Pressure: 30.09"   Gusts: NA
Location:  31.1753°N, 94.7371°W
Report Text: KLFK 252353Z AUTO 00000KT 10SM CLR 24/18 A3009 RMK AO2 SLP185 T02390183 10306 20239 55003
Loading
Personal Weather Stations






























Interactive Weather Map
Tropical Storm Tracking
New forecast layout! Learn more

10-Day Weather Forecast

Advertisements
Track Severe Weather on mobile